createdAt,value
2022-10-09T00:01:05.380Z,40.60
2022-10-09T00:03:33.475Z,44.80
2022-10-09T00:06:00.198Z,42.10
2022-10-09T00:08:26.948Z,40.50
2022-10-09T00:10:53.399Z,40.60
2022-10-09T00:13:20.350Z,38.30
2022-10-09T00:15:47.179Z,38.40
2022-10-09T00:18:16.193Z,36.90
2022-10-09T00:20:45.477Z,39.40
2022-10-09T00:23:13.658Z,38.30
2022-10-09T00:25:49.613Z,38.30
2022-10-09T00:28:16.101Z,37.60
2022-10-09T00:30:42.840Z,35.40
2022-10-09T00:33:09.646Z,36.30
2022-10-09T00:35:39.060Z,35.00
2022-10-09T00:38:06.930Z,34.20
2022-10-09T00:40:35.310Z,34.60
2022-10-09T00:43:02.364Z,34.80
2022-10-09T00:45:30.146Z,33.00
2022-10-09T00:48:05.047Z,35.60
2022-10-09T00:50:43.387Z,36.00
2022-10-09T00:53:15.406Z,35.10
2022-10-09T00:55:42.719Z,33.20
2022-10-09T00:58:12.148Z,35.60
2022-10-09T01:00:39.596Z,33.60
2022-10-09T01:03:06.441Z,35.10
2022-10-09T01:06:12.085Z,35.20
2022-10-09T01:08:42.007Z,33.90
2022-10-09T01:11:19.809Z,34.60
2022-10-09T01:13:57.017Z,31.60
2022-10-09T01:16:36.138Z,32.40
2022-10-09T01:19:29.521Z,33.30
2022-10-09T01:22:31.490Z,33.30
2022-10-09T01:25:00.782Z,34.20
2022-10-09T01:27:28.695Z,36.00
2022-10-09T01:30:02.110Z,36.70
2022-10-09T01:32:33.299Z,33.70
2022-10-09T01:35:02.058Z,34.80
2022-10-09T01:37:31.300Z,35.50
2022-10-09T01:39:59.391Z,36.00
2022-10-09T01:42:29.134Z,35.70
2022-10-09T01:44:55.632Z,38.10
2022-10-09T01:47:22.170Z,38.70
2022-10-09T01:50:05.075Z,39.10
2022-10-09T01:52:41.314Z,39.90
2022-10-09T01:55:26.541Z,37.60
2022-10-09T01:58:05.074Z,39.40
2022-10-09T02:00:38.877Z,35.50
2022-10-09T02:03:11.441Z,38.30
2022-10-09T02:05:40.139Z,37.30
2022-10-09T02:08:07.706Z,38.00
2022-10-09T02:10:35.697Z,38.90
2022-10-09T02:13:02.241Z,38.10
2022-10-09T02:15:38.860Z,38.60
2022-10-09T02:18:19.811Z,36.70
2022-10-09T02:20:51.560Z,36.00
2022-10-09T02:23:19.775Z,37.50
2022-10-09T02:25:46.772Z,36.70
2022-10-09T02:28:13.466Z,36.40
2022-10-09T02:30:50.865Z,27.00
2022-10-09T02:33:17.558Z,19.60
2022-10-09T02:35:44.805Z,14.40
2022-10-09T02:38:11.359Z,13.00
2022-10-09T02:40:37.900Z,9.30
2022-10-09T02:43:04.388Z,8.80
2022-10-09T02:45:30.898Z,7.80
2022-10-09T02:47:57.523Z,7.10
2022-10-09T02:50:24.037Z,7.00
2022-10-09T02:52:51.118Z,7.20
2022-10-09T02:55:17.823Z,7.10
2022-10-09T02:57:44.297Z,7.30
2022-10-09T03:00:11.805Z,6.60
2022-10-09T03:02:38.356Z,5.50
2022-10-09T03:05:05.631Z,5.90
2022-10-09T03:07:32.185Z,5.40
2022-10-09T03:09:58.740Z,4.80
2022-10-09T03:12:25.298Z,4.50
2022-10-09T03:14:51.819Z,3.90
2022-10-09T03:17:18.306Z,4.30
2022-10-09T03:19:44.912Z,3.80
2022-10-09T03:22:11.442Z,4.40
2022-10-09T03:24:37.878Z,3.80
2022-10-09T03:27:04.607Z,4.00
2022-10-09T03:29:31.163Z,4.20
2022-10-09T03:31:57.699Z,4.30
2022-10-09T03:34:24.241Z,4.00
2022-10-09T03:36:50.783Z,4.10
2022-10-09T03:39:17.494Z,4.10
2022-10-09T03:41:44.126Z,4.70
2022-10-09T03:44:10.709Z,5.00
2022-10-09T03:46:37.383Z,4.30
2022-10-09T03:49:04.017Z,4.40
2022-10-09T03:51:30.532Z,5.10
2022-10-09T03:53:57.181Z,4.80
2022-10-09T03:56:23.710Z,4.40
2022-10-09T03:58:50.352Z,4.60
2022-10-09T04:01:16.973Z,4.60
2022-10-09T04:03:43.614Z,4.40
2022-10-09T04:06:10.691Z,4.40
2022-10-09T04:08:37.433Z,4.40
2022-10-09T04:11:04.035Z,4.20
2022-10-09T04:13:31.166Z,4.20
2022-10-09T04:15:57.827Z,4.10
2022-10-09T04:18:25.056Z,3.80
2022-10-09T04:20:53.567Z,3.60
2022-10-09T04:23:21.088Z,3.20
2022-10-09T04:25:47.578Z,2.30
2022-10-09T04:28:14.734Z,3.70
2022-10-09T04:30:41.411Z,2.70
2022-10-09T04:33:12.573Z,2.40
2022-10-09T04:35:46.823Z,2.60
2022-10-09T04:38:13.618Z,2.80
2022-10-09T04:40:40.579Z,2.80
2022-10-09T04:43:07.146Z,2.80
2022-10-09T04:45:40.488Z,2.60
2022-10-09T04:48:07.249Z,3.10
2022-10-09T04:50:33.729Z,3.20
2022-10-09T04:53:00.229Z,2.70
2022-10-09T04:55:26.769Z,2.70
2022-10-09T04:57:53.295Z,2.70
2022-10-09T05:00:19.849Z,3.20
2022-10-09T05:02:46.862Z,2.90
2022-10-09T05:05:14.074Z,3.20
2022-10-09T05:07:40.482Z,3.20
2022-10-09T05:10:07.846Z,3.50
2022-10-09T05:12:34.309Z,3.10
2022-10-09T05:15:00.868Z,3.20
2022-10-09T05:17:27.498Z,3.80
2022-10-09T05:19:54.108Z,3.70
2022-10-09T05:22:20.849Z,3.40
2022-10-09T05:24:47.331Z,3.50
2022-10-09T05:27:13.777Z,3.40
2022-10-09T05:29:40.371Z,3.30
2022-10-09T05:32:07.468Z,3.50
2022-10-09T05:34:34.678Z,3.40
2022-10-09T05:37:01.189Z,3.10
2022-10-09T05:39:27.758Z,3.10
2022-10-09T05:41:54.297Z,3.30
2022-10-09T05:44:20.943Z,3.30
2022-10-09T05:46:47.467Z,3.60
2022-10-09T05:49:14.059Z,3.80
2022-10-09T05:51:40.985Z,3.60
2022-10-09T05:54:07.504Z,3.70
2022-10-09T05:56:39.077Z,3.50
2022-10-09T05:59:08.256Z,4.30
2022-10-09T06:01:37.614Z,3.10
2022-10-09T06:04:05.646Z,3.00
2022-10-09T06:06:36.780Z,2.90
2022-10-09T06:09:04.079Z,2.60
2022-10-09T06:11:35.987Z,2.60
2022-10-09T06:14:05.174Z,2.10
2022-10-09T06:16:38.259Z,2.20
2022-10-09T06:19:06.634Z,1.70
2022-10-09T06:21:34.576Z,2.00
2022-10-09T06:24:03.670Z,1.90
2022-10-09T06:26:31.186Z,2.40
2022-10-09T06:28:59.616Z,1.80
2022-10-09T06:31:29.361Z,1.90
2022-10-09T06:34:01.235Z,1.90
2022-10-09T06:36:30.809Z,2.50
2022-10-09T06:38:59.910Z,1.90
2022-10-09T06:41:28.246Z,2.00
2022-10-09T06:43:57.515Z,2.10
2022-10-09T06:46:27.415Z,1.90
2022-10-09T06:48:54.363Z,1.80
2022-10-09T06:51:23.005Z,1.80
2022-10-09T06:53:52.401Z,1.90
2022-10-09T06:56:20.902Z,1.90
2022-10-09T06:58:47.899Z,2.10
2022-10-09T07:01:26.173Z,2.30
2022-10-09T07:03:55.226Z,2.50
2022-10-09T07:06:24.335Z,2.90
2022-10-09T07:08:53.797Z,3.10
2022-10-09T07:11:23.537Z,2.80
2022-10-09T07:13:54.999Z,2.80
2022-10-09T07:16:24.855Z,2.70
2022-10-09T07:18:52.050Z,3.30
2022-10-09T07:21:18.812Z,3.60
2022-10-09T07:23:46.072Z,2.70
2022-10-09T07:26:16.602Z,2.70
2022-10-09T07:28:43.861Z,2.90
2022-10-09T07:31:11.582Z,2.70
2022-10-09T07:33:38.960Z,3.40
2022-10-09T07:36:07.074Z,3.30
2022-10-09T07:38:33.933Z,3.10
2022-10-09T07:41:03.561Z,3.10
2022-10-09T07:43:30.485Z,3.20
2022-10-09T07:46:01.838Z,3.00
2022-10-09T07:48:28.817Z,3.50
2022-10-09T07:50:56.059Z,3.20
2022-10-09T07:53:23.234Z,3.20
2022-10-09T07:55:49.958Z,2.70
2022-10-09T07:58:17.664Z,2.50
2022-10-09T08:00:44.279Z,3.00
2022-10-09T08:03:10.911Z,2.70
2022-10-09T08:05:37.654Z,2.10
2022-10-09T08:08:04.201Z,2.80
2022-10-09T08:10:32.110Z,2.80
2022-10-09T08:12:58.866Z,2.50
2022-10-09T08:15:26.320Z,2.20
2022-10-09T08:17:54.248Z,1.60
2022-10-09T08:20:20.897Z,1.60
2022-10-09T08:22:47.797Z,1.70
2022-10-09T08:25:14.797Z,1.40
2022-10-09T08:27:41.353Z,1.70
2022-10-09T08:30:08.690Z,1.70
2022-10-09T08:32:35.127Z,1.50
2022-10-09T08:35:01.876Z,1.70
2022-10-09T08:37:28.492Z,1.50
2022-10-09T08:39:54.956Z,1.70
2022-10-09T08:42:49.642Z,1.40
2022-10-09T08:45:18.766Z,1.60
2022-10-09T08:48:01.270Z,1.50
2022-10-09T08:50:32.528Z,1.60
2022-10-09T08:53:10.382Z,1.70
2022-10-09T08:56:09.338Z,1.50
2022-10-09T08:58:38.702Z,1.70
2022-10-09T09:01:10.911Z,1.80
2022-10-09T09:03:52.816Z,1.80
2022-10-09T09:06:48.837Z,1.40
2022-10-09T09:09:37.272Z,1.40
2022-10-09T09:12:22.742Z,1.30
2022-10-09T09:15:17.827Z,1.60
2022-10-09T09:18:18.914Z,1.70
2022-10-09T09:20:54.763Z,1.30
2022-10-09T09:23:28.959Z,1.30
2022-10-09T09:25:56.190Z,1.20
2022-10-09T09:28:29.500Z,1.10
2022-10-09T09:31:16.617Z,1.50
2022-10-09T09:33:45.923Z,1.00
2022-10-09T09:36:39.136Z,1.60
2022-10-09T09:39:55.691Z,1.30
2022-10-09T09:41:55.510Z,1.50
2022-10-09T09:44:22.296Z,1.80
2022-10-09T09:46:49.388Z,1.60
2022-10-09T09:49:22.571Z,1.40
2022-10-09T09:51:50.889Z,1.20
2022-10-09T09:54:24.647Z,1.00
2022-10-09T09:57:12.016Z,1.10
2022-10-09T09:59:42.677Z,1.70
2022-10-09T10:02:18.099Z,1.20
2022-10-09T10:04:58.474Z,1.00
2022-10-09T10:07:36.711Z,1.50
2022-10-09T10:10:15.219Z,1.60
2022-10-09T10:12:44.931Z,1.30
2022-10-09T10:15:23.497Z,1.80
2022-10-09T10:18:03.709Z,1.30
2022-10-09T10:20:32.514Z,1.30
2022-10-09T10:23:00.590Z,1.50
2022-10-09T10:25:34.065Z,1.60
2022-10-09T10:28:06.106Z,1.30
2022-10-09T10:30:35.556Z,1.50
2022-10-09T10:33:13.667Z,1.80
2022-10-09T10:35:43.232Z,1.50
2022-10-09T10:38:29.673Z,1.40
2022-10-09T10:41:05.612Z,2.10
2022-10-09T10:43:44.588Z,1.80
2022-10-09T10:46:26.740Z,1.70
2022-10-09T10:48:53.738Z,1.70
2022-10-09T10:51:35.638Z,1.60
2022-10-09T10:54:17.431Z,1.50
2022-10-09T10:56:50.891Z,2.00
2022-10-09T10:59:38.980Z,1.80
2022-10-09T11:02:11.619Z,1.40
2022-10-09T11:05:05.971Z,1.80
2022-10-09T11:08:00.045Z,1.30
2022-10-09T11:10:51.984Z,1.60
2022-10-09T11:13:24.479Z,1.60
2022-10-09T11:16:10.105Z,1.10
2022-10-09T11:19:01.414Z,1.60
2022-10-09T11:24:27.947Z,1.80
2022-10-09T11:27:06.701Z,1.80
2022-10-09T11:29:43.705Z,1.90
2022-10-09T11:32:24.947Z,1.80
2022-10-09T11:34:59.015Z,1.80
2022-10-09T11:37:30.939Z,1.90
2022-10-09T11:39:57.385Z,2.60
2022-10-09T11:42:26.129Z,2.20
2022-10-09T11:45:05.047Z,1.90
2022-10-09T11:47:43.722Z,2.10
2022-10-09T11:50:25.516Z,2.00
2022-10-09T11:52:57.688Z,1.80
2022-10-09T11:55:27.757Z,2.10
2022-10-09T11:57:54.831Z,2.40
2022-10-09T12:00:36.835Z,2.30
2022-10-09T12:03:06.073Z,2.00
2022-10-09T12:05:41.175Z,2.10
2022-10-09T12:08:27.274Z,2.00
2022-10-09T12:11:10.603Z,2.20
2022-10-09T12:13:36.961Z,2.30
2022-10-09T12:16:04.988Z,2.10
2022-10-09T12:18:44.268Z,1.90
2022-10-09T12:21:40.463Z,1.80
2022-10-09T12:24:14.011Z,2.20
2022-10-09T12:26:41.411Z,2.00
2022-10-09T12:29:18.778Z,2.20
2022-10-09T12:31:46.917Z,2.40
2022-10-09T12:34:32.266Z,1.70
2022-10-09T12:37:17.859Z,1.80
2022-10-09T12:39:45.751Z,1.80
2022-10-09T12:42:25.030Z,1.80
2022-10-09T12:44:55.084Z,1.80
2022-10-09T12:47:27.868Z,1.90
2022-10-09T12:49:55.228Z,1.80
2022-10-09T12:52:21.734Z,2.50
2022-10-09T12:54:48.414Z,2.30
2022-10-09T12:57:16.389Z,1.80
2022-10-09T12:59:44.978Z,2.30
2022-10-09T13:02:14.402Z,2.10
2022-10-09T13:04:41.229Z,1.70
2022-10-09T13:07:19.142Z,2.50
2022-10-09T13:09:45.958Z,2.60
2022-10-09T13:12:21.842Z,2.30
2022-10-09T13:14:56.810Z,2.40
2022-10-09T13:17:34.387Z,2.50
2022-10-09T13:20:04.972Z,2.30
2022-10-09T13:22:33.744Z,2.50
2022-10-09T13:27:34.976Z,2.80
2022-10-09T13:30:02.705Z,2.50
2022-10-09T13:32:29.214Z,2.20
2022-10-09T13:34:55.714Z,1.90
2022-10-09T13:37:24.216Z,1.90
2022-10-09T13:39:55.293Z,1.80
2022-10-09T13:44:49.481Z,1.90
2022-10-09T13:47:18.627Z,2.10
2022-10-09T13:49:49.071Z,2.40
2022-10-09T13:52:16.075Z,2.40
2022-10-09T13:54:42.667Z,2.10
2022-10-09T13:57:09.307Z,2.40
2022-10-09T13:59:36.198Z,1.70
2022-10-09T14:02:02.840Z,1.70
2022-10-09T14:04:29.455Z,1.90
2022-10-09T14:06:56.452Z,1.90
2022-10-09T14:09:23.388Z,1.50
2022-10-09T14:11:49.910Z,1.90
2022-10-09T14:14:16.331Z,1.60
2022-10-09T14:16:43.008Z,1.20
2022-10-09T14:19:10.572Z,1.40
2022-10-09T14:21:37.113Z,1.60
2022-10-09T14:24:04.450Z,1.60
2022-10-09T14:26:31.569Z,1.40
2022-10-09T14:29:00.607Z,1.90
2022-10-09T14:31:27.492Z,1.30
2022-10-09T14:33:57.806Z,1.50
2022-10-09T14:36:24.985Z,1.60
2022-10-09T14:38:51.715Z,1.40
2022-10-09T14:41:18.486Z,1.40
2022-10-09T14:43:46.223Z,1.30
2022-10-09T14:46:15.647Z,1.60
2022-10-09T14:48:43.879Z,1.10
2022-10-09T14:51:17.210Z,1.00
2022-10-09T14:53:44.260Z,1.30
2022-10-09T14:56:14.101Z,1.40
2022-10-09T14:58:41.658Z,1.60
2022-10-09T15:01:14.736Z,1.50
2022-10-09T15:03:41.770Z,1.40
2022-10-09T15:06:10.685Z,1.50
2022-10-09T15:08:40.091Z,1.00
2022-10-09T15:11:07.348Z,1.20
2022-10-09T15:13:35.319Z,1.10
2022-10-09T15:16:22.291Z,1.30
2022-10-09T15:18:51.034Z,1.30
2022-10-09T15:21:20.195Z,1.00
2022-10-09T15:23:47.292Z,1.10
2022-10-09T15:26:17.413Z,1.10
2022-10-09T15:28:44.332Z,1.30
2022-10-09T15:31:19.919Z,1.10
2022-10-09T15:33:46.356Z,1.60
2022-10-09T15:36:12.895Z,1.30
2022-10-09T15:38:40.359Z,1.30
2022-10-09T15:41:06.898Z,1.70
2022-10-09T15:43:35.377Z,2.10
2022-10-09T15:46:03.825Z,2.00
2022-10-09T15:48:30.415Z,1.70
2022-10-09T15:50:56.954Z,2.60
2022-10-09T15:53:24.523Z,4.40
2022-10-09T15:55:53.019Z,6.20
2022-10-09T15:58:20.270Z,6.50
2022-10-09T16:00:49.118Z,7.20
2022-10-09T16:03:17.463Z,9.60
2022-10-09T16:05:46.615Z,12.20
2022-10-09T16:08:13.196Z,10.10
2022-10-09T16:10:48.594Z,8.90
2022-10-09T16:13:16.819Z,8.00
2022-10-09T16:15:45.092Z,11.10
2022-10-09T16:18:11.938Z,12.60
2022-10-09T16:20:39.708Z,12.20
2022-10-09T16:23:07.721Z,8.70
2022-10-09T16:25:35.060Z,12.00
2022-10-09T16:28:01.782Z,11.70
2022-10-09T16:30:28.532Z,8.70
2022-10-09T16:32:55.134Z,8.10
2022-10-09T16:35:22.432Z,7.30
2022-10-09T16:37:51.843Z,6.20
2022-10-09T16:40:18.590Z,19.00
2022-10-09T16:42:45.547Z,12.70
2022-10-09T16:45:12.083Z,11.30
2022-10-09T16:47:38.871Z,10.60
2022-10-09T16:50:06.124Z,11.50
2022-10-09T16:52:33.137Z,12.90
2022-10-09T16:55:00.594Z,12.50
2022-10-09T16:57:27.650Z,12.00
2022-10-09T16:59:54.129Z,13.60
2022-10-09T17:02:20.605Z,16.00
2022-10-09T17:04:47.279Z,17.70
2022-10-09T17:07:14.126Z,17.50
2022-10-09T17:09:40.667Z,17.80
2022-10-09T17:12:09.180Z,18.70
2022-10-09T17:14:40.430Z,21.80
2022-10-09T17:17:09.403Z,17.90
2022-10-09T17:19:36.659Z,15.40
2022-10-09T17:22:03.728Z,16.10
2022-10-09T17:24:30.583Z,17.00
2022-10-09T17:26:57.224Z,25.20
2022-10-09T17:29:24.152Z,25.40
2022-10-09T17:31:51.359Z,19.60
2022-10-09T17:34:18.406Z,17.80
2022-10-09T17:36:45.606Z,18.80
2022-10-09T17:39:15.574Z,17.70
2022-10-09T17:41:45.438Z,19.80
2022-10-09T17:44:12.221Z,35.90
2022-10-09T17:46:38.666Z,33.30
2022-10-09T17:49:05.123Z,36.10
2022-10-09T17:51:34.242Z,22.70
2022-10-09T17:54:04.931Z,42.90
2022-10-09T17:56:33.502Z,27.10
2022-10-09T17:59:01.184Z,28.40
2022-10-09T18:01:28.079Z,29.60
2022-10-09T18:03:54.966Z,22.70
2022-10-09T18:06:22.794Z,25.40
2022-10-09T18:08:53.570Z,33.00
2022-10-09T18:11:21.972Z,33.80
2022-10-09T18:13:49.138Z,28.20
2022-10-09T18:16:20.668Z,27.50
2022-10-09T18:18:47.109Z,29.90
2022-10-09T18:21:16.616Z,34.00
2022-10-09T18:23:44.409Z,48.80
2022-10-09T18:26:13.919Z,47.50
2022-10-09T18:28:42.618Z,51.00
2022-10-09T18:31:17.959Z,36.20
2022-10-09T18:33:44.988Z,55.30
2022-10-09T18:36:16.133Z,41.70
2022-10-09T18:38:42.671Z,32.70
2022-10-09T18:41:09.535Z,46.90
2022-10-09T18:43:36.484Z,37.30
2022-10-09T18:46:03.515Z,40.30
2022-10-09T18:48:34.048Z,40.00
2022-10-09T18:51:02.638Z,40.70
2022-10-09T18:53:31.297Z,37.30
2022-10-09T18:55:58.479Z,35.40
2022-10-09T18:58:24.976Z,33.80
2022-10-09T19:00:51.580Z,35.90
2022-10-09T19:03:18.208Z,34.50
2022-10-09T19:05:44.745Z,40.00
2022-10-09T19:08:11.290Z,38.30
2022-10-09T19:10:37.933Z,34.10
2022-10-09T19:13:04.481Z,35.20
2022-10-09T19:15:31.015Z,42.40
2022-10-09T19:17:57.555Z,39.00
2022-10-09T19:20:25.416Z,45.10
2022-10-09T19:22:52.064Z,44.00
2022-10-09T19:25:18.601Z,45.90
2022-10-09T19:27:45.038Z,46.30
2022-10-09T19:30:11.987Z,43.40
2022-10-09T19:32:38.426Z,37.90
2022-10-09T19:35:05.487Z,52.50
2022-10-09T19:37:32.016Z,39.20
2022-10-09T19:39:58.560Z,47.00
2022-10-09T19:42:25.096Z,42.80
2022-10-09T19:44:51.852Z,39.10
2022-10-09T19:47:18.378Z,48.00
2022-10-09T19:49:44.920Z,44.80
2022-10-09T19:52:11.598Z,39.60
2022-10-09T19:54:38.098Z,42.70
2022-10-09T19:57:04.637Z,39.50
2022-10-09T19:59:31.303Z,36.90
2022-10-09T20:01:57.866Z,39.50
2022-10-09T20:04:24.411Z,41.20
2022-10-09T20:06:51.721Z,42.00
2022-10-09T20:09:18.269Z,66.00
2022-10-09T20:11:44.803Z,44.30
2022-10-09T20:14:11.333Z,48.10
2022-10-09T20:16:38.617Z,40.30
2022-10-09T20:19:05.143Z,41.30
2022-10-09T20:21:33.526Z,38.40
2022-10-09T20:24:00.677Z,38.80
2022-10-09T20:26:27.943Z,45.00
2022-10-09T20:28:54.473Z,45.90
2022-10-09T20:31:24.103Z,42.10
2022-10-09T20:33:51.241Z,44.90
2022-10-09T20:36:32.717Z,42.90
2022-10-09T20:39:01.649Z,45.30
2022-10-09T20:41:30.673Z,43.60
2022-10-09T20:43:59.500Z,43.80
2022-10-09T20:46:29.739Z,42.00
2022-10-09T20:48:56.695Z,53.00
2022-10-09T20:51:23.854Z,47.60
2022-10-09T20:53:55.330Z,41.60
2022-10-09T20:58:49.214Z,52.30
2022-10-09T21:01:15.832Z,44.70
2022-10-09T21:03:43.314Z,43.00
2022-10-09T21:06:14.059Z,41.70
2022-10-09T21:08:40.534Z,37.30
2022-10-09T21:11:10.741Z,41.20
2022-10-09T21:13:38.614Z,43.00
2022-10-09T21:16:08.467Z,42.70
2022-10-09T21:18:35.590Z,39.80
2022-10-09T21:21:11.233Z,38.80
2022-10-09T21:23:38.171Z,37.10
2022-10-09T21:26:05.119Z,36.70
2022-10-09T21:28:31.650Z,35.10
2022-10-09T21:30:58.200Z,34.60
2022-10-09T21:33:24.694Z,33.80
2022-10-09T21:35:52.101Z,33.20
2022-10-09T21:38:20.484Z,36.40
2022-10-09T21:40:47.646Z,34.70
2022-10-09T21:43:14.123Z,35.40
2022-10-09T21:45:41.243Z,36.10
2022-10-09T21:48:08.432Z,34.70
2022-10-09T21:50:36.579Z,34.20
2022-10-09T21:53:04.240Z,34.60
2022-10-09T21:55:31.402Z,34.90
2022-10-09T21:57:57.938Z,33.50
2022-10-09T22:00:24.719Z,35.60
2022-10-09T22:02:51.454Z,37.30
2022-10-09T22:05:18.395Z,38.10
2022-10-09T22:07:44.919Z,34.80
2022-10-09T22:10:12.329Z,34.20
2022-10-09T22:12:38.940Z,31.90
2022-10-09T22:15:06.626Z,32.80
2022-10-09T22:17:33.128Z,31.50
2022-10-09T22:19:59.619Z,32.60
2022-10-09T22:22:26.105Z,32.80
2022-10-09T22:24:52.953Z,33.30
2022-10-09T22:27:19.906Z,33.00
2022-10-09T22:29:46.452Z,32.70
2022-10-09T22:32:13.093Z,32.30
2022-10-09T22:34:39.629Z,31.90
2022-10-09T22:37:06.218Z,32.60
2022-10-09T22:39:32.824Z,31.80
2022-10-09T22:41:59.236Z,34.20
2022-10-09T22:44:25.711Z,33.80
2022-10-09T22:46:52.429Z,36.10
2022-10-09T22:49:18.958Z,42.40
2022-10-09T22:51:46.135Z,43.40
2022-10-09T22:54:13.279Z,44.10
2022-10-09T22:56:42.834Z,41.40
2022-10-09T22:59:10.358Z,40.50
2022-10-09T23:01:47.490Z,42.20
2022-10-09T23:04:16.450Z,39.90
2022-10-09T23:06:44.423Z,37.30
2022-10-09T23:09:14.336Z,40.90
2022-10-09T23:11:41.596Z,38.10
2022-10-09T23:14:08.669Z,38.50
2022-10-09T23:16:35.306Z,36.60
2022-10-09T23:19:06.501Z,36.40
2022-10-09T23:21:36.376Z,37.30
2022-10-09T23:24:03.944Z,34.80
2022-10-09T23:26:32.123Z,35.80
2022-10-09T23:29:09.702Z,35.30
2022-10-09T23:31:36.655Z,36.10
2022-10-09T23:34:04.775Z,37.60
2022-10-09T23:36:31.453Z,35.10
2022-10-09T23:38:59.256Z,31.80
2022-10-09T23:41:27.946Z,31.40
2022-10-09T23:43:55.256Z,34.50
2022-10-09T23:46:24.649Z,31.80
2022-10-09T23:48:52.503Z,35.50
2022-10-09T23:51:21.549Z,33.40
2022-10-09T23:53:48.339Z,33.40
2022-10-09T23:56:26.146Z,45.60
2022-10-09T23:58:53.721Z,46.90
